sensor_id;sensor_type;location;lat;lon;timestamp;temperature;humidity
22130;DHT22;11231;50.746;4.272;2023-07-31T00:00:49;19.20;99.90
22130;DHT22;11231;50.746;4.272;2023-07-31T00:03:15;19.10;99.90
22130;DHT22;11231;50.746;4.272;2023-07-31T00:05:41;19.20;99.90
22130;DHT22;11231;50.746;4.272;2023-07-31T00:08:07;19.30;99.90
22130;DHT22;11231;50.746;4.272;2023-07-31T00:10:32;19.30;99.90
22130;DHT22;11231;50.746;4.272;2023-07-31T00:12:59;19.40;99.90
22130;DHT22;11231;50.746;4.272;2023-07-31T00:15:25;19.50;99.90
22130;DHT22;11231;50.746;4.272;2023-07-31T00:17:50;19.40;99.90
22130;DHT22;11231;50.746;4.272;2023-07-31T00:20:16;19.40;99.90
22130;DHT22;11231;50.746;4.272;2023-07-31T00:22:42;19.30;99.90
22130;DHT22;11231;50.746;4.272;2023-07-31T00:25:07;19.40;99.90
22130;DHT22;11231;50.746;4.272;2023-07-31T00:27:33;19.40;99.90
22130;DHT22;11231;50.746;4.272;2023-07-31T00:29:59;19.40;99.90
22130;DHT22;11231;50.746;4.272;2023-07-31T00:32:25;19.30;99.90
22130;DHT22;11231;50.746;4.272;2023-07-31T00:34:50;19.30;99.90
22130;DHT22;11231;50.746;4.272;2023-07-31T00:37:16;19.30;99.90
22130;DHT22;11231;50.746;4.272;2023-07-31T00:39:42;19.20;99.90
22130;DHT22;11231;50.746;4.272;2023-07-31T00:42:08;19.30;99.90
22130;DHT22;11231;50.746;4.272;2023-07-31T00:44:33;19.40;99.90
22130;DHT22;11231;50.746;4.272;2023-07-31T00:46:59;19.40;99.90
22130;DHT22;11231;50.746;4.272;2023-07-31T00:49:26;19.40;99.90
22130;DHT22;11231;50.746;4.272;2023-07-31T00:51:53;19.30;99.90
22130;DHT22;11231;50.746;4.272;2023-07-31T00:54:19;19.30;99.90
22130;DHT22;11231;50.746;4.272;2023-07-31T00:56:47;19.30;99.90
22130;DHT22;11231;50.746;4.272;2023-07-31T00:59:14;19.20;99.90
22130;DHT22;11231;50.746;4.272;2023-07-31T01:01:40;19.20;99.90
22130;DHT22;11231;50.746;4.272;2023-07-31T01:04:06;19.20;99.90
22130;DHT22;11231;50.746;4.272;2023-07-31T01:06:55;19.30;99.90
22130;DHT22;11231;50.746;4.272;2023-07-31T01:09:46;19.20;99.90
22130;DHT22;11231;50.746;4.272;2023-07-31T01:12:14;19.20;99.90
22130;DHT22;11231;50.746;4.272;2023-07-31T01:14:41;19.20;99.90
22130;DHT22;11231;50.746;4.272;2023-07-31T01:17:15;19.20;99.90
22130;DHT22;11231;50.746;4.272;2023-07-31T01:19:43;19.10;99.90
22130;DHT22;11231;50.746;4.272;2023-07-31T01:27:17;19.10;99.90
22130;DHT22;11231;50.746;4.272;2023-07-31T01:29:59;19.10;99.90
22130;DHT22;11231;50.746;4.272;2023-07-31T01:32:28;19.10;99.90
22130;DHT22;11231;50.746;4.272;2023-07-31T01:34:55;19.00;99.90
22130;DHT22;11231;50.746;4.272;2023-07-31T01:37:28;19.10;99.90
22130;DHT22;11231;50.746;4.272;2023-07-31T01:39:54;19.10;99.90
22130;DHT22;11231;50.746;4.272;2023-07-31T01:42:20;19.10;99.90
22130;DHT22;11231;50.746;4.272;2023-07-31T01:44:45;19.10;99.90
22130;DHT22;11231;50.746;4.272;2023-07-31T01:47:11;19.10;99.90
22130;DHT22;11231;50.746;4.272;2023-07-31T01:49:37;19.10;99.90
22130;DHT22;11231;50.746;4.272;2023-07-31T01:52:02;19.20;99.90
22130;DHT22;11231;50.746;4.272;2023-07-31T01:54:28;19.20;99.90
22130;DHT22;11231;50.746;4.272;2023-07-31T01:56:54;19.20;99.90
22130;DHT22;11231;50.746;4.272;2023-07-31T01:59:20;19.10;99.90
22130;DHT22;11231;50.746;4.272;2023-07-31T02:01:45;19.10;99.90
22130;DHT22;11231;50.746;4.272;2023-07-31T02:04:11;19.10;99.90
22130;DHT22;11231;50.746;4.272;2023-07-31T02:06:39;19.10;99.90
22130;DHT22;11231;50.746;4.272;2023-07-31T02:09:05;19.10;99.90
22130;DHT22;11231;50.746;4.272;2023-07-31T02:11:31;19.20;99.90
22130;DHT22;11231;50.746;4.272;2023-07-31T02:13:57;19.10;99.90
22130;DHT22;11231;50.746;4.272;2023-07-31T02:16:22;19.10;99.90
22130;DHT22;11231;50.746;4.272;2023-07-31T02:18:48;19.00;99.90
22130;DHT22;11231;50.746;4.272;2023-07-31T02:21:14;19.10;99.90
22130;DHT22;11231;50.746;4.272;2023-07-31T02:23:40;19.10;99.90
22130;DHT22;11231;50.746;4.272;2023-07-31T02:26:05;19.10;99.90
22130;DHT22;11231;50.746;4.272;2023-07-31T02:28:31;19.00;99.90
22130;DHT22;11231;50.746;4.272;2023-07-31T02:30:57;19.00;99.90
22130;DHT22;11231;50.746;4.272;2023-07-31T02:33:22;19.00;99.90
22130;DHT22;11231;50.746;4.272;2023-07-31T02:35:48;19.00;99.90
22130;DHT22;11231;50.746;4.272;2023-07-31T02:38:14;18.90;99.90
22130;DHT22;11231;50.746;4.272;2023-07-31T02:40:40;19.00;99.90
22130;DHT22;11231;50.746;4.272;2023-07-31T02:43:09;19.00;99.90
22130;DHT22;11231;50.746;4.272;2023-07-31T02:45:35;19.00;99.90
22130;DHT22;11231;50.746;4.272;2023-07-31T02:48:01;18.90;99.90
22130;DHT22;11231;50.746;4.272;2023-07-31T02:50:27;18.80;99.90
22130;DHT22;11231;50.746;4.272;2023-07-31T02:52:55;18.80;99.90
22130;DHT22;11231;50.746;4.272;2023-07-31T02:55:21;18.80;99.90
22130;DHT22;11231;50.746;4.272;2023-07-31T02:57:46;18.80;99.90
22130;DHT22;11231;50.746;4.272;2023-07-31T03:00:13;18.90;99.90
22130;DHT22;11231;50.746;4.272;2023-07-31T03:02:38;18.90;99.90
22130;DHT22;11231;50.746;4.272;2023-07-31T03:05:04;19.00;99.90
22130;DHT22;11231;50.746;4.272;2023-07-31T03:07:30;19.00;99.90
22130;DHT22;11231;50.746;4.272;2023-07-31T03:09:56;19.10;99.90
22130;DHT22;11231;50.746;4.272;2023-07-31T03:12:22;19.10;99.90
22130;DHT22;11231;50.746;4.272;2023-07-31T03:14:51;19.00;99.90
22130;DHT22;11231;50.746;4.272;2023-07-31T03:17:16;18.90;99.90
22130;DHT22;11231;50.746;4.272;2023-07-31T03:19:42;18.90;99.90
22130;DHT22;11231;50.746;4.272;2023-07-31T03:22:08;18.90;99.90
22130;DHT22;11231;50.746;4.272;2023-07-31T03:24:34;18.80;99.90
22130;DHT22;11231;50.746;4.272;2023-07-31T03:26:59;18.90;99.90
22130;DHT22;11231;50.746;4.272;2023-07-31T03:29:26;18.80;99.90
22130;DHT22;11231;50.746;4.272;2023-07-31T03:31:52;18.80;99.90
22130;DHT22;11231;50.746;4.272;2023-07-31T03:34:17;18.80;99.90
22130;DHT22;11231;50.746;4.272;2023-07-31T03:36:43;18.80;99.90
22130;DHT22;11231;50.746;4.272;2023-07-31T03:39:10;18.70;99.90
22130;DHT22;11231;50.746;4.272;2023-07-31T03:41:35;18.60;99.90
22130;DHT22;11231;50.746;4.272;2023-07-31T03:44:01;18.60;99.90
22130;DHT22;11231;50.746;4.272;2023-07-31T03:46:27;18.60;99.90
22130;DHT22;11231;50.746;4.272;2023-07-31T03:48:53;18.70;99.90
22130;DHT22;11231;50.746;4.272;2023-07-31T03:51:19;18.70;99.90
22130;DHT22;11231;50.746;4.272;2023-07-31T03:53:45;18.70;99.90
22130;DHT22;11231;50.746;4.272;2023-07-31T03:56:10;18.80;99.90
22130;DHT22;11231;50.746;4.272;2023-07-31T03:58:36;18.90;99.90
22130;DHT22;11231;50.746;4.272;2023-07-31T04:01:03;18.90;99.90
22130;DHT22;11231;50.746;4.272;2023-07-31T04:03:29;18.70;99.90
22130;DHT22;11231;50.746;4.272;2023-07-31T04:05:55;18.70;99.90
22130;DHT22;11231;50.746;4.272;2023-07-31T04:08:23;18.70;99.90
22130;DHT22;11231;50.746;4.272;2023-07-31T04:10:49;18.70;99.90
22130;DHT22;11231;50.746;4.272;2023-07-31T04:13:15;18.80;99.90
22130;DHT22;11231;50.746;4.272;2023-07-31T04:15:41;18.80;99.90
22130;DHT22;11231;50.746;4.272;2023-07-31T04:18:07;18.90;99.90
22130;DHT22;11231;50.746;4.272;2023-07-31T04:20:33;19.00;99.90
22130;DHT22;11231;50.746;4.272;2023-07-31T04:22:58;19.00;99.90
22130;DHT22;11231;50.746;4.272;2023-07-31T04:25:24;18.80;99.90
22130;DHT22;11231;50.746;4.272;2023-07-31T04:27:50;18.80;99.90
22130;DHT22;11231;50.746;4.272;2023-07-31T04:30:15;18.70;99.90
22130;DHT22;11231;50.746;4.272;2023-07-31T04:32:41;18.70;99.90
22130;DHT22;11231;50.746;4.272;2023-07-31T04:35:07;18.70;99.90
22130;DHT22;11231;50.746;4.272;2023-07-31T04:37:33;18.80;99.90
22130;DHT22;11231;50.746;4.272;2023-07-31T04:39:58;18.80;99.90
22130;DHT22;11231;50.746;4.272;2023-07-31T04:42:24;18.90;99.90
22130;DHT22;11231;50.746;4.272;2023-07-31T04:44:50;18.80;99.90
22130;DHT22;11231;50.746;4.272;2023-07-31T04:47:16;18.80;99.90
22130;DHT22;11231;50.746;4.272;2023-07-31T04:49:41;18.80;99.90
22130;DHT22;11231;50.746;4.272;2023-07-31T04:52:07;18.80;99.90
22130;DHT22;11231;50.746;4.272;2023-07-31T04:54:33;18.70;99.90
22130;DHT22;11231;50.746;4.272;2023-07-31T04:56:58;18.60;99.90
22130;DHT22;11231;50.746;4.272;2023-07-31T04:59:24;18.50;99.90
22130;DHT22;11231;50.746;4.272;2023-07-31T05:01:50;18.40;99.90
22130;DHT22;11231;50.746;4.272;2023-07-31T05:04:16;18.30;99.90
22130;DHT22;11231;50.746;4.272;2023-07-31T05:06:42;18.30;99.90
22130;DHT22;11231;50.746;4.272;2023-07-31T05:09:07;18.30;99.90
22130;DHT22;11231;50.746;4.272;2023-07-31T05:11:34;18.30;99.90
22130;DHT22;11231;50.746;4.272;2023-07-31T05:14:00;18.20;99.90
22130;DHT22;11231;50.746;4.272;2023-07-31T05:16:26;18.20;99.90
22130;DHT22;11231;50.746;4.272;2023-07-31T05:18:52;18.20;99.90
22130;DHT22;11231;50.746;4.272;2023-07-31T05:21:18;18.10;99.90
22130;DHT22;11231;50.746;4.272;2023-07-31T05:23:43;18.00;99.90
22130;DHT22;11231;50.746;4.272;2023-07-31T05:26:12;17.90;99.90
22130;DHT22;11231;50.746;4.272;2023-07-31T05:28:37;17.90;99.90
22130;DHT22;11231;50.746;4.272;2023-07-31T05:31:05;17.90;99.90
22130;DHT22;11231;50.746;4.272;2023-07-31T05:33:31;18.00;99.90
22130;DHT22;11231;50.746;4.272;2023-07-31T05:35:57;18.00;99.90
22130;DHT22;11231;50.746;4.272;2023-07-31T05:38:22;18.00;99.90
22130;DHT22;11231;50.746;4.272;2023-07-31T05:40:48;18.00;99.90
22130;DHT22;11231;50.746;4.272;2023-07-31T05:43:14;18.00;99.90
22130;DHT22;11231;50.746;4.272;2023-07-31T05:45:43;18.10;99.90
22130;DHT22;11231;50.746;4.272;2023-07-31T05:48:08;18.10;99.90
22130;DHT22;11231;50.746;4.272;2023-07-31T05:50:34;18.10;99.90
22130;DHT22;11231;50.746;4.272;2023-07-31T05:53:00;18.00;99.90
22130;DHT22;11231;50.746;4.272;2023-07-31T05:55:26;17.80;99.90
22130;DHT22;11231;50.746;4.272;2023-07-31T05:57:54;17.80;99.90
22130;DHT22;11231;50.746;4.272;2023-07-31T06:00:20;17.90;99.90
22130;DHT22;11231;50.746;4.272;2023-07-31T06:02:47;17.90;99.90
22130;DHT22;11231;50.746;4.272;2023-07-31T06:05:13;17.90;99.90
22130;DHT22;11231;50.746;4.272;2023-07-31T06:07:38;18.10;99.90
22130;DHT22;11231;50.746;4.272;2023-07-31T06:10:05;18.10;99.90
22130;DHT22;11231;50.746;4.272;2023-07-31T06:12:32;18.10;99.90
22130;DHT22;11231;50.746;4.272;2023-07-31T06:14:57;18.20;99.90
22130;DHT22;11231;50.746;4.272;2023-07-31T06:17:23;18.10;99.90
22130;DHT22;11231;50.746;4.272;2023-07-31T06:19:50;18.10;99.90
22130;DHT22;11231;50.746;4.272;2023-07-31T06:22:16;18.10;99.90
22130;DHT22;11231;50.746;4.272;2023-07-31T06:24:42;18.10;99.90
22130;DHT22;11231;50.746;4.272;2023-07-31T06:27:07;18.10;99.90
22130;DHT22;11231;50.746;4.272;2023-07-31T06:29:33;18.30;99.90
22130;DHT22;11231;50.746;4.272;2023-07-31T06:31:59;18.30;99.90
22130;DHT22;11231;50.746;4.272;2023-07-31T06:34:25;18.40;99.90
22130;DHT22;11231;50.746;4.272;2023-07-31T06:36:50;18.50;99.90
22130;DHT22;11231;50.746;4.272;2023-07-31T06:39:16;18.50;99.90
22130;DHT22;11231;50.746;4.272;2023-07-31T06:41:43;18.60;99.90
22130;DHT22;11231;50.746;4.272;2023-07-31T06:44:10;18.60;99.90
22130;DHT22;11231;50.746;4.272;2023-07-31T06:46:36;18.60;99.90
22130;DHT22;11231;50.746;4.272;2023-07-31T06:49:02;18.70;99.90
22130;DHT22;11231;50.746;4.272;2023-07-31T06:51:27;18.80;99.90
22130;DHT22;11231;50.746;4.272;2023-07-31T06:53:53;18.80;99.90
22130;DHT22;11231;50.746;4.272;2023-07-31T06:56:20;19.00;99.90
22130;DHT22;11231;50.746;4.272;2023-07-31T06:58:46;19.10;99.90
22130;DHT22;11231;50.746;4.272;2023-07-31T07:01:11;19.30;99.90
22130;DHT22;11231;50.746;4.272;2023-07-31T07:03:37;19.40;99.90
22130;DHT22;11231;50.746;4.272;2023-07-31T07:06:03;19.70;99.90
22130;DHT22;11231;50.746;4.272;2023-07-31T07:08:28;19.60;99.90
22130;DHT22;11231;50.746;4.272;2023-07-31T07:10:54;19.60;99.90
22130;DHT22;11231;50.746;4.272;2023-07-31T07:13:21;19.60;99.90
22130;DHT22;11231;50.746;4.272;2023-07-31T07:15:50;19.60;99.90
22130;DHT22;11231;50.746;4.272;2023-07-31T07:18:17;19.70;99.90
22130;DHT22;11231;50.746;4.272;2023-07-31T07:20:52;19.70;99.90
22130;DHT22;11231;50.746;4.272;2023-07-31T07:23:19;19.80;99.90
22130;DHT22;11231;50.746;4.272;2023-07-31T07:25:45;19.90;99.90
22130;DHT22;11231;50.746;4.272;2023-07-31T07:28:11;19.80;99.90
22130;DHT22;11231;50.746;4.272;2023-07-31T07:30:37;19.60;99.90
22130;DHT22;11231;50.746;4.272;2023-07-31T07:33:03;19.60;99.90
22130;DHT22;11231;50.746;4.272;2023-07-31T07:35:29;19.70;99.90
22130;DHT22;11231;50.746;4.272;2023-07-31T07:37:55;19.80;99.90
22130;DHT22;11231;50.746;4.272;2023-07-31T07:40:21;19.90;99.90
22130;DHT22;11231;50.746;4.272;2023-07-31T07:42:47;20.10;99.90
22130;DHT22;11231;50.746;4.272;2023-07-31T07:45:13;20.20;99.90
22130;DHT22;11231;50.746;4.272;2023-07-31T07:47:40;20.10;99.90
22130;DHT22;11231;50.746;4.272;2023-07-31T07:50:06;20.00;99.90
22130;DHT22;11231;50.746;4.272;2023-07-31T07:52:32;19.90;99.90
22130;DHT22;11231;50.746;4.272;2023-07-31T07:54:58;20.00;99.90
22130;DHT22;11231;50.746;4.272;2023-07-31T07:57:24;19.90;99.90
22130;DHT22;11231;50.746;4.272;2023-07-31T07:59:49;20.00;99.90
22130;DHT22;11231;50.746;4.272;2023-07-31T08:02:15;19.90;99.90
22130;DHT22;11231;50.746;4.272;2023-07-31T08:04:41;19.70;99.90
22130;DHT22;11231;50.746;4.272;2023-07-31T08:07:07;19.60;99.90
22130;DHT22;11231;50.746;4.272;2023-07-31T08:09:32;19.60;99.90
22130;DHT22;11231;50.746;4.272;2023-07-31T08:11:58;19.80;99.90
22130;DHT22;11231;50.746;4.272;2023-07-31T08:14:27;19.80;99.90
22130;DHT22;11231;50.746;4.272;2023-07-31T08:16:53;20.00;99.90
22130;DHT22;11231;50.746;4.272;2023-07-31T08:19:19;20.00;99.90
22130;DHT22;11231;50.746;4.272;2023-07-31T08:21:44;19.80;99.90
22130;DHT22;11231;50.746;4.272;2023-07-31T08:24:10;19.60;99.90
22130;DHT22;11231;50.746;4.272;2023-07-31T08:26:36;19.40;99.90
22130;DHT22;11231;50.746;4.272;2023-07-31T08:29:01;19.60;99.90
22130;DHT22;11231;50.746;4.272;2023-07-31T08:31:27;19.70;99.90
22130;DHT22;11231;50.746;4.272;2023-07-31T08:33:55;19.80;99.90
22130;DHT22;11231;50.746;4.272;2023-07-31T08:36:20;19.90;99.90
22130;DHT22;11231;50.746;4.272;2023-07-31T08:38:46;19.90;99.90
22130;DHT22;11231;50.746;4.272;2023-07-31T08:41:12;19.80;99.90
22130;DHT22;11231;50.746;4.272;2023-07-31T08:43:39;19.60;99.90
22130;DHT22;11231;50.746;4.272;2023-07-31T08:46:05;19.70;99.90
22130;DHT22;11231;50.746;4.272;2023-07-31T08:48:31;19.70;99.90
22130;DHT22;11231;50.746;4.272;2023-07-31T08:50:58;19.70;99.90
22130;DHT22;11231;50.746;4.272;2023-07-31T08:53:23;19.50;99.90
22130;DHT22;11231;50.746;4.272;2023-07-31T08:55:49;19.50;99.90
22130;DHT22;11231;50.746;4.272;2023-07-31T08:58:17;19.70;99.90
22130;DHT22;11231;50.746;4.272;2023-07-31T09:00:43;19.90;99.90
22130;DHT22;11231;50.746;4.272;2023-07-31T09:03:14;20.10;99.90
22130;DHT22;11231;50.746;4.272;2023-07-31T09:05:43;20.10;99.90
22130;DHT22;11231;50.746;4.272;2023-07-31T09:08:11;20.10;99.90
22130;DHT22;11231;50.746;4.272;2023-07-31T09:10:44;20.20;99.90
22130;DHT22;11231;50.746;4.272;2023-07-31T09:13:13;20.30;99.90
22130;DHT22;11231;50.746;4.272;2023-07-31T09:15:40;20.20;99.90
22130;DHT22;11231;50.746;4.272;2023-07-31T09:18:07;20.50;99.90
22130;DHT22;11231;50.746;4.272;2023-07-31T09:20:33;20.60;99.90
22130;DHT22;11231;50.746;4.272;2023-07-31T09:23:08;20.70;99.90
22130;DHT22;11231;50.746;4.272;2023-07-31T09:25:35;20.60;99.90
22130;DHT22;11231;50.746;4.272;2023-07-31T09:28:03;20.50;99.90
22130;DHT22;11231;50.746;4.272;2023-07-31T09:30:29;20.60;99.90
22130;DHT22;11231;50.746;4.272;2023-07-31T09:33:02;20.40;99.90
22130;DHT22;11231;50.746;4.272;2023-07-31T09:35:32;20.10;99.90
22130;DHT22;11231;50.746;4.272;2023-07-31T09:38:00;20.00;99.90
22130;DHT22;11231;50.746;4.272;2023-07-31T09:40:39;20.20;99.90
22130;DHT22;11231;50.746;4.272;2023-07-31T09:43:07;20.40;99.90
22130;DHT22;11231;50.746;4.272;2023-07-31T09:45:40;20.60;99.90
22130;DHT22;11231;50.746;4.272;2023-07-31T09:48:08;20.70;99.90
22130;DHT22;11231;50.746;4.272;2023-07-31T09:50:40;20.60;99.90
22130;DHT22;11231;50.746;4.272;2023-07-31T09:53:07;20.70;99.90
22130;DHT22;11231;50.746;4.272;2023-07-31T09:55:33;20.90;99.90
22130;DHT22;11231;50.746;4.272;2023-07-31T09:58:03;20.90;99.90
22130;DHT22;11231;50.746;4.272;2023-07-31T10:00:30;20.80;99.90
22130;DHT22;11231;50.746;4.272;2023-07-31T10:02:58;20.80;99.90
22130;DHT22;11231;50.746;4.272;2023-07-31T10:05:31;21.00;99.90
22130;DHT22;11231;50.746;4.272;2023-07-31T10:07:59;21.10;99.90
22130;DHT22;11231;50.746;4.272;2023-07-31T10:10:26;21.30;99.90
22130;DHT22;11231;50.746;4.272;2023-07-31T10:12:53;21.40;99.90
22130;DHT22;11231;50.746;4.272;2023-07-31T10:15:19;21.10;99.90
22130;DHT22;11231;50.746;4.272;2023-07-31T10:17:49;21.00;99.90
22130;DHT22;11231;50.746;4.272;2023-07-31T10:20:16;21.00;99.90
22130;DHT22;11231;50.746;4.272;2023-07-31T10:22:45;21.10;99.90
22130;DHT22;11231;50.746;4.272;2023-07-31T10:25:15;21.20;99.90
22130;DHT22;11231;50.746;4.272;2023-07-31T10:27:41;21.30;99.90
22130;DHT22;11231;50.746;4.272;2023-07-31T10:30:10;21.10;99.90
22130;DHT22;11231;50.746;4.272;2023-07-31T10:32:38;21.20;99.90
22130;DHT22;11231;50.746;4.272;2023-07-31T10:35:07;21.40;99.90
22130;DHT22;11231;50.746;4.272;2023-07-31T10:37:38;21.60;99.90
22130;DHT22;11231;50.746;4.272;2023-07-31T10:40:18;21.50;99.90
22130;DHT22;11231;50.746;4.272;2023-07-31T10:45:14;21.30;99.90
22130;DHT22;11231;50.746;4.272;2023-07-31T10:47:48;21.20;99.90
22130;DHT22;11231;50.746;4.272;2023-07-31T10:50:22;21.20;99.90
22130;DHT22;11231;50.746;4.272;2023-07-31T10:52:53;21.30;99.90
22130;DHT22;11231;50.746;4.272;2023-07-31T10:55:29;21.40;99.90
22130;DHT22;11231;50.746;4.272;2023-07-31T10:57:57;21.50;99.90
22130;DHT22;11231;50.746;4.272;2023-07-31T11:00:26;21.60;99.90
22130;DHT22;11231;50.746;4.272;2023-07-31T11:03:06;21.80;99.90
22130;DHT22;11231;50.746;4.272;2023-07-31T11:05:44;22.10;99.90
22130;DHT22;11231;50.746;4.272;2023-07-31T11:08:13;22.10;99.90
22130;DHT22;11231;50.746;4.272;2023-07-31T11:10:39;22.10;99.90
22130;DHT22;11231;50.746;4.272;2023-07-31T11:13:06;22.00;99.90
22130;DHT22;11231;50.746;4.272;2023-07-31T11:15:31;22.10;99.90
22130;DHT22;11231;50.746;4.272;2023-07-31T11:17:57;21.90;99.90
22130;DHT22;11231;50.746;4.272;2023-07-31T11:20:25;21.60;99.90
22130;DHT22;11231;50.746;4.272;2023-07-31T11:22:52;21.50;99.90
22130;DHT22;11231;50.746;4.272;2023-07-31T11:25:18;21.50;99.90
22130;DHT22;11231;50.746;4.272;2023-07-31T11:27:43;21.70;99.90
22130;DHT22;11231;50.746;4.272;2023-07-31T11:30:10;22.00;99.90
22130;DHT22;11231;50.746;4.272;2023-07-31T11:32:37;22.20;99.90
22130;DHT22;11231;50.746;4.272;2023-07-31T11:35:03;22.20;99.90
22130;DHT22;11231;50.746;4.272;2023-07-31T11:40:06;22.00;99.90
22130;DHT22;11231;50.746;4.272;2023-07-31T11:42:32;21.90;99.90
22130;DHT22;11231;50.746;4.272;2023-07-31T11:45:02;21.60;99.90
22130;DHT22;11231;50.746;4.272;2023-07-31T11:47:28;21.50;99.90
22130;DHT22;11231;50.746;4.272;2023-07-31T11:49:56;21.60;99.90
22130;DHT22;11231;50.746;4.272;2023-07-31T11:52:22;21.70;99.90
22130;DHT22;11231;50.746;4.272;2023-07-31T11:54:49;21.90;99.90
22130;DHT22;11231;50.746;4.272;2023-07-31T11:57:15;21.90;99.90
22130;DHT22;11231;50.746;4.272;2023-07-31T11:59:42;22.00;99.90
22130;DHT22;11231;50.746;4.272;2023-07-31T12:02:08;22.20;99.90
22130;DHT22;11231;50.746;4.272;2023-07-31T12:04:34;22.50;99.90
22130;DHT22;11231;50.746;4.272;2023-07-31T12:07:01;22.70;99.90
22130;DHT22;11231;50.746;4.272;2023-07-31T12:09:26;22.90;99.90
22130;DHT22;11231;50.746;4.272;2023-07-31T12:11:52;23.00;99.90
22130;DHT22;11231;50.746;4.272;2023-07-31T12:14:21;22.80;99.90
22130;DHT22;11231;50.746;4.272;2023-07-31T12:17:00;22.70;99.90
22130;DHT22;11231;50.746;4.272;2023-07-31T12:19:26;22.80;99.90
22130;DHT22;11231;50.746;4.272;2023-07-31T12:21:59;22.90;99.90
22130;DHT22;11231;50.746;4.272;2023-07-31T12:24:28;22.90;99.90
22130;DHT22;11231;50.746;4.272;2023-07-31T12:26:54;23.00;99.90
22130;DHT22;11231;50.746;4.272;2023-07-31T12:29:20;22.80;99.90
22130;DHT22;11231;50.746;4.272;2023-07-31T12:31:46;22.60;99.90
22130;DHT22;11231;50.746;4.272;2023-07-31T12:34:16;22.50;99.90
22130;DHT22;11231;50.746;4.272;2023-07-31T12:36:43;22.50;99.90
22130;DHT22;11231;50.746;4.272;2023-07-31T12:39:09;22.50;99.90
22130;DHT22;11231;50.746;4.272;2023-07-31T12:41:35;22.60;99.90
22130;DHT22;11231;50.746;4.272;2023-07-31T12:44:01;22.60;99.90
22130;DHT22;11231;50.746;4.272;2023-07-31T12:46:26;22.80;99.90
22130;DHT22;11231;50.746;4.272;2023-07-31T12:48:52;23.00;99.90
22130;DHT22;11231;50.746;4.272;2023-07-31T12:51:18;22.80;99.90
22130;DHT22;11231;50.746;4.272;2023-07-31T12:53:44;22.60;99.90
22130;DHT22;11231;50.746;4.272;2023-07-31T12:56:09;22.20;99.90
22130;DHT22;11231;50.746;4.272;2023-07-31T12:58:35;22.00;99.90
22130;DHT22;11231;50.746;4.272;2023-07-31T13:01:01;21.80;99.90
22130;DHT22;11231;50.746;4.272;2023-07-31T13:03:27;21.80;99.90
22130;DHT22;11231;50.746;4.272;2023-07-31T13:05:53;21.40;99.90
22130;DHT22;11231;50.746;4.272;2023-07-31T13:08:19;21.30;99.90
22130;DHT22;11231;50.746;4.272;2023-07-31T13:10:45;21.20;99.90
22130;DHT22;11231;50.746;4.272;2023-07-31T13:13:11;21.10;99.90
22130;DHT22;11231;50.746;4.272;2023-07-31T13:15:36;21.00;99.90
22130;DHT22;11231;50.746;4.272;2023-07-31T13:18:02;20.80;99.90
22130;DHT22;11231;50.746;4.272;2023-07-31T13:20:28;20.60;99.90
22130;DHT22;11231;50.746;4.272;2023-07-31T13:22:53;20.40;99.90
22130;DHT22;11231;50.746;4.272;2023-07-31T13:25:19;20.40;99.90
22130;DHT22;11231;50.746;4.272;2023-07-31T13:27:45;20.40;99.90
22130;DHT22;11231;50.746;4.272;2023-07-31T13:30:10;20.00;99.90
22130;DHT22;11231;50.746;4.272;2023-07-31T13:32:36;19.90;99.90
22130;DHT22;11231;50.746;4.272;2023-07-31T13:35:05;19.90;99.90
22130;DHT22;11231;50.746;4.272;2023-07-31T13:37:31;19.70;99.90
22130;DHT22;11231;50.746;4.272;2023-07-31T13:39:57;19.70;99.90
22130;DHT22;11231;50.746;4.272;2023-07-31T13:42:22;19.60;99.90
22130;DHT22;11231;50.746;4.272;2023-07-31T13:44:48;19.60;99.90
22130;DHT22;11231;50.746;4.272;2023-07-31T13:47:14;19.70;99.90
22130;DHT22;11231;50.746;4.272;2023-07-31T13:49:40;19.60;99.90
22130;DHT22;11231;50.746;4.272;2023-07-31T13:52:08;19.70;99.90
22130;DHT22;11231;50.746;4.272;2023-07-31T13:54:34;19.70;99.90
22130;DHT22;11231;50.746;4.272;2023-07-31T13:57:00;19.60;99.90
22130;DHT22;11231;50.746;4.272;2023-07-31T13:59:26;19.60;99.90
22130;DHT22;11231;50.746;4.272;2023-07-31T14:01:51;19.60;99.90
22130;DHT22;11231;50.746;4.272;2023-07-31T14:04:17;19.60;99.90
22130;DHT22;11231;50.746;4.272;2023-07-31T14:06:43;19.60;99.90
22130;DHT22;11231;50.746;4.272;2023-07-31T14:09:09;19.70;99.90
22130;DHT22;11231;50.746;4.272;2023-07-31T14:11:35;19.80;99.90
22130;DHT22;11231;50.746;4.272;2023-07-31T14:14:01;19.90;99.90
22130;DHT22;11231;50.746;4.272;2023-07-31T14:16:30;20.20;99.90
22130;DHT22;11231;50.746;4.272;2023-07-31T14:18:55;20.30;99.90
22130;DHT22;11231;50.746;4.272;2023-07-31T14:21:21;20.20;99.90
22130;DHT22;11231;50.746;4.272;2023-07-31T14:23:47;20.00;99.90
22130;DHT22;11231;50.746;4.272;2023-07-31T14:26:12;20.00;99.90
22130;DHT22;11231;50.746;4.272;2023-07-31T14:28:38;19.90;99.90
22130;DHT22;11231;50.746;4.272;2023-07-31T14:31:04;19.90;99.90
22130;DHT22;11231;50.746;4.272;2023-07-31T14:33:30;20.00;99.90
22130;DHT22;11231;50.746;4.272;2023-07-31T14:35:55;20.10;99.90
22130;DHT22;11231;50.746;4.272;2023-07-31T14:38:21;20.00;99.90
22130;DHT22;11231;50.746;4.272;2023-07-31T14:40:47;20.00;99.90
22130;DHT22;11231;50.746;4.272;2023-07-31T14:43:13;20.00;99.90
22130;DHT22;11231;50.746;4.272;2023-07-31T14:45:39;20.00;99.90
22130;DHT22;11231;50.746;4.272;2023-07-31T14:48:04;20.00;99.90
22130;DHT22;11231;50.746;4.272;2023-07-31T14:50:30;20.10;99.90
22130;DHT22;11231;50.746;4.272;2023-07-31T14:52:56;20.10;99.90
22130;DHT22;11231;50.746;4.272;2023-07-31T14:55:21;19.90;99.90
22130;DHT22;11231;50.746;4.272;2023-07-31T14:57:47;20.00;99.90
22130;DHT22;11231;50.746;4.272;2023-07-31T15:00:13;19.80;99.90
22130;DHT22;11231;50.746;4.272;2023-07-31T15:02:40;19.80;99.90
22130;DHT22;11231;50.746;4.272;2023-07-31T15:05:06;19.70;99.90
22130;DHT22;11231;50.746;4.272;2023-07-31T15:07:33;19.80;99.90
22130;DHT22;11231;50.746;4.272;2023-07-31T15:09:59;19.60;99.90
22130;DHT22;11231;50.746;4.272;2023-07-31T15:12:25;19.50;99.90
22130;DHT22;11231;50.746;4.272;2023-07-31T15:14:52;19.40;99.90
22130;DHT22;11231;50.746;4.272;2023-07-31T15:17:18;19.40;99.90
22130;DHT22;11231;50.746;4.272;2023-07-31T15:19:43;19.40;99.90
22130;DHT22;11231;50.746;4.272;2023-07-31T15:22:09;19.50;99.90
22130;DHT22;11231;50.746;4.272;2023-07-31T15:24:35;19.30;99.90
22130;DHT22;11231;50.746;4.272;2023-07-31T15:27:00;19.30;99.90
22130;DHT22;11231;50.746;4.272;2023-07-31T15:29:28;19.20;99.90
22130;DHT22;11231;50.746;4.272;2023-07-31T15:31:54;19.10;99.90
22130;DHT22;11231;50.746;4.272;2023-07-31T15:34:20;19.20;99.90
22130;DHT22;11231;50.746;4.272;2023-07-31T15:36:46;19.20;99.90